createdAt,value
2019-02-19T00:00:05.884Z,6.95
2019-02-19T00:05:08.111Z,6.70
2019-02-19T00:10:11.236Z,6.79
2019-02-19T00:15:13.545Z,6.84
2019-02-19T00:20:16.458Z,6.86
2019-02-19T00:25:18.477Z,6.86
2019-02-19T00:30:20.400Z,6.71
2019-02-19T00:35:22.306Z,6.57
2019-02-19T00:40:24.271Z,6.49
2019-02-19T00:45:26.402Z,6.52
2019-02-19T00:50:28.527Z,6.47
2019-02-19T00:55:30.411Z,6.20
2019-02-19T01:00:32.290Z,6.04
2019-02-19T01:05:34.407Z,5.91
2019-02-19T01:10:36.294Z,5.76
2019-02-19T01:15:38.301Z,5.68
2019-02-19T01:20:40.219Z,5.70
2019-02-19T01:25:42.105Z,5.69
2019-02-19T01:30:44.016Z,5.39
2019-02-19T01:35:46.026Z,5.25
2019-02-19T01:40:48.065Z,5.04
2019-02-19T01:45:50.014Z,4.84
2019-02-19T01:50:51.926Z,4.87
2019-02-19T01:55:53.974Z,4.74
2019-02-19T02:00:56.110Z,4.69
2019-02-19T02:05:58.008Z,4.65
2019-02-19T02:11:00.167Z,4.57
2019-02-19T02:16:02.072Z,4.50
2019-02-19T02:21:03.974Z,4.78
2019-02-19T02:26:05.854Z,4.74
2019-02-19T02:31:09.253Z,4.63
2019-02-19T02:36:11.398Z,4.47
2019-02-19T02:41:13.435Z,4.35
2019-02-19T02:46:16.343Z,4.18
2019-02-19T02:51:18.404Z,4.22
2019-02-19T02:56:20.279Z,4.21
2019-02-19T03:01:22.176Z,4.18
2019-02-19T03:06:36.359Z,4.22
2019-02-19T03:11:38.547Z,4.09
2019-02-19T03:16:40.641Z,4.09
2019-02-19T03:21:43.021Z,3.95
2019-02-19T03:26:46.038Z,3.95
2019-02-19T03:31:47.943Z,4.14
2019-02-19T03:36:49.878Z,4.02
2019-02-19T03:41:51.810Z,4.03
2019-02-19T03:46:53.720Z,4.22
2019-02-19T03:51:55.631Z,4.33
2019-02-19T03:56:57.743Z,4.20
2019-02-19T04:01:59.760Z,4.23
2019-02-19T04:07:01.671Z,4.41
2019-02-19T04:12:03.721Z,4.43
2019-02-19T04:17:05.715Z,4.30
2019-02-19T04:22:07.615Z,4.15
2019-02-19T04:27:10.832Z,4.13
2019-02-19T04:32:12.748Z,4.13
2019-02-19T04:37:14.660Z,4.31
2019-02-19T04:42:16.626Z,4.27
2019-02-19T04:47:18.507Z,4.23
2019-02-19T04:52:20.409Z,4.27
2019-02-19T04:57:22.297Z,4.36
2019-02-19T05:02:24.449Z,4.54
2019-02-19T05:07:26.355Z,4.68
2019-02-19T05:12:28.282Z,4.78
2019-02-19T05:17:30.178Z,4.84
2019-02-19T05:22:32.295Z,4.79
2019-02-19T05:27:34.182Z,4.77
2019-02-19T05:32:36.085Z,4.85
2019-02-19T05:37:38.029Z,4.68
2019-02-19T05:42:40.068Z,4.37
2019-02-19T05:47:41.939Z,4.29
2019-02-19T05:52:43.836Z,4.43
2019-02-19T05:57:45.719Z,4.81
2019-02-19T06:02:47.603Z,5.01
2019-02-19T06:07:49.506Z,5.10
2019-02-19T06:12:51.449Z,5.22
2019-02-19T06:17:53.538Z,5.30
2019-02-19T06:22:55.429Z,5.17
2019-02-19T06:27:57.346Z,5.17
2019-02-19T06:33:20.283Z,5.13
2019-02-19T06:38:22.226Z,5.05
2019-02-19T06:43:24.561Z,5.09
2019-02-19T06:48:26.456Z,5.22
2019-02-19T06:53:29.343Z,5.53
2019-02-19T06:58:31.256Z,5.88
2019-02-19T07:04:05.954Z,5.84
2019-02-19T07:09:08.244Z,5.81
2019-02-19T07:14:10.219Z,5.77
2019-02-19T07:19:12.236Z,5.58
2019-02-19T07:24:14.128Z,5.64
2019-02-19T07:29:16.136Z,5.60
2019-02-19T07:34:18.010Z,5.74
2019-02-19T07:39:20.017Z,5.79
2019-02-19T07:44:22.018Z,5.93
2019-02-19T07:49:23.896Z,6.06
2019-02-19T07:54:25.779Z,6.16
2019-02-19T07:59:27.775Z,6.30
2019-02-19T08:04:29.670Z,6.39
2019-02-19T08:09:31.772Z,6.53
2019-02-19T08:14:49.317Z,6.65
2019-02-19T08:19:51.201Z,6.92
2019-02-19T08:24:53.083Z,6.94
2019-02-19T08:29:55.372Z,7.15
2019-02-19T08:34:57.226Z,7.14
2019-02-19T08:39:59.216Z,7.16
2019-02-19T08:45:01.368Z,7.10
2019-02-19T08:50:03.757Z,7.28
2019-02-19T08:55:05.975Z,7.23
2019-02-19T09:00:09.462Z,7.14
2019-02-19T09:05:11.591Z,7.35
2019-02-19T09:10:14.905Z,7.75
2019-02-19T09:15:16.806Z,7.78
2019-02-19T09:20:18.698Z,8.12
2019-02-19T09:25:20.709Z,8.31
2019-02-19T09:30:22.694Z,8.49
2019-02-19T09:35:24.573Z,8.95
2019-02-19T09:40:26.504Z,9.23
2019-02-19T09:45:28.447Z,8.96
2019-02-19T09:50:30.325Z,8.93
2019-02-19T09:55:32.336Z,8.98
2019-02-19T10:00:34.334Z,8.92
2019-02-19T10:05:36.362Z,9.13
2019-02-19T10:10:38.594Z,9.25
2019-02-19T10:15:40.662Z,9.21
2019-02-19T10:20:42.536Z,9.10
2019-02-19T10:25:44.715Z,9.15
2019-02-19T10:30:46.717Z,8.99
2019-02-19T10:35:48.603Z,8.80
2019-02-19T10:40:50.513Z,8.74
2019-02-19T10:45:52.588Z,8.63
2019-02-19T10:50:54.477Z,8.77
2019-02-19T10:55:56.371Z,8.80
2019-02-19T11:00:58.393Z,8.80
2019-02-19T11:06:00.317Z,8.80
2019-02-19T11:11:02.306Z,8.82
2019-02-19T11:16:04.263Z,8.68
2019-02-19T11:21:06.134Z,8.77
2019-02-19T11:26:08.243Z,8.78
2019-02-19T11:31:10.255Z,8.75
2019-02-19T11:36:12.169Z,8.82
2019-02-19T11:41:14.088Z,8.63
2019-02-19T11:46:16.018Z,8.84
2019-02-19T11:51:17.921Z,8.89
2019-02-19T11:56:19.930Z,9.05
2019-02-19T12:01:21.930Z,9.05
2019-02-19T12:06:23.842Z,9.16
2019-02-19T12:11:25.717Z,8.87
2019-02-19T12:16:28.655Z,8.77
2019-02-19T12:21:30.575Z,8.85
2019-02-19T12:26:32.481Z,8.79
2019-02-19T12:31:34.394Z,8.72
2019-02-19T12:36:36.397Z,8.83
2019-02-19T12:41:38.289Z,8.90
2019-02-19T12:46:40.409Z,8.88
2019-02-19T12:51:42.298Z,9.01
2019-02-19T12:56:44.187Z,9.03
2019-02-19T13:01:46.097Z,9.32
2019-02-19T13:06:48.002Z,9.34
2019-02-19T13:11:50.007Z,9.43
2019-02-19T13:16:52.025Z,9.43
2019-02-19T13:21:53.906Z,9.70
2019-02-19T13:26:55.927Z,9.39
2019-02-19T13:31:57.825Z,9.56
2019-02-19T13:36:59.794Z,9.43
2019-02-19T13:42:01.794Z,9.29
2019-02-19T13:47:03.874Z,9.39
2019-02-19T13:52:22.599Z,9.24
2019-02-19T13:57:21.503Z,9.12
2019-02-19T14:02:23.373Z,9.48
2019-02-19T14:07:25.252Z,10.87
2019-02-19T14:12:27.166Z,11.71
2019-02-19T14:17:29.090Z,11.95
2019-02-19T14:22:49.023Z,11.97
2019-02-19T14:28:16.947Z,12.01
2019-02-19T14:33:48.804Z,12.15
2019-02-19T14:39:05.881Z,12.34
2019-02-19T14:44:38.701Z,12.87
2019-02-19T14:49:58.547Z,13.60
2019-02-19T14:55:26.212Z,14.12
2019-02-19T15:00:56.781Z,13.52
2019-02-19T15:06:16.801Z,13.94
2019-02-19T15:11:36.831Z,14.43
2019-02-19T15:16:56.202Z,14.08
2019-02-19T15:22:16.422Z,13.77
2019-02-19T15:27:30.888Z,12.90
2019-02-19T15:32:56.570Z,12.95
2019-02-19T15:38:29.942Z,12.56
2019-02-19T15:43:39.402Z,12.14
2019-02-19T15:48:55.074Z,11.94
2019-02-19T15:54:16.683Z,11.49
2019-02-19T15:59:36.993Z,11.38
2019-02-19T16:04:51.298Z,11.10
2019-02-19T16:10:06.699Z,10.21
2019-02-19T16:15:15.670Z,9.83
2019-02-19T16:20:40.951Z,9.54
2019-02-19T16:25:59.008Z,9.27
2019-02-19T16:31:24.090Z,8.99
2019-02-19T16:36:45.665Z,8.81
2019-02-19T16:41:54.394Z,8.68
2019-02-19T16:47:05.559Z,8.53
2019-02-19T16:52:27.265Z,8.39
2019-02-19T16:57:40.992Z,8.31
2019-02-19T17:02:51.262Z,8.27
2019-02-19T17:07:59.908Z,8.15
2019-02-19T17:13:21.650Z,8.02
2019-02-19T17:18:49.351Z,7.96
2019-02-19T17:24:09.610Z,7.76
2019-02-19T17:29:18.162Z,7.65
2019-02-19T17:34:48.578Z,7.51
2019-02-19T17:40:10.317Z,7.23
2019-02-19T17:45:35.158Z,7.37
2019-02-19T17:50:49.217Z,7.23
2019-02-19T17:55:58.727Z,7.09
2019-02-19T18:01:06.504Z,7.02
2019-02-19T18:06:31.061Z,6.79
2019-02-19T18:11:51.685Z,6.58
2019-02-19T18:17:11.524Z,6.55
2019-02-19T18:22:13.481Z,6.61
2019-02-19T18:27:15.404Z,6.57
2019-02-19T18:32:17.290Z,6.48
2019-02-19T18:37:19.284Z,6.68
2019-02-19T18:42:21.646Z,6.60
2019-02-19T18:47:23.570Z,6.70
2019-02-19T18:52:25.533Z,6.92
2019-02-19T18:57:27.421Z,6.66
2019-02-19T19:02:29.309Z,6.72
2019-02-19T19:07:31.301Z,6.84
2019-02-19T19:12:33.417Z,6.86
2019-02-19T19:17:35.652Z,6.90
2019-02-19T19:22:37.781Z,6.95
2019-02-19T19:27:39.974Z,7.11
2019-02-19T19:32:41.905Z,7.25
2019-02-19T19:37:43.896Z,7.34
2019-02-19T19:42:46.202Z,7.23
2019-02-19T19:47:49.491Z,7.24
2019-02-19T19:52:51.401Z,7.20
2019-02-19T19:57:53.286Z,7.17
2019-02-19T20:02:55.785Z,7.08
2019-02-19T20:07:57.655Z,7.09
2019-02-19T20:13:01.309Z,7.10
2019-02-19T20:18:03.575Z,6.94
2019-02-19T20:23:05.729Z,6.75
2019-02-19T20:28:07.919Z,6.57
2019-02-19T20:33:10.102Z,6.58
2019-02-19T20:38:11.993Z,6.62
2019-02-19T20:43:13.950Z,6.56
2019-02-19T20:48:16.058Z,6.50
2019-02-19T20:53:18.092Z,6.49
2019-02-19T20:58:22.403Z,6.51
2019-02-19T21:03:25.341Z,6.44
2019-02-19T21:08:29.775Z,6.35
2019-02-19T21:13:31.661Z,6.26
2019-02-19T21:18:33.542Z,6.32
2019-02-19T21:23:35.717Z,6.17
2019-02-19T21:28:37.676Z,6.23
2019-02-19T21:33:39.562Z,6.36
2019-02-19T21:38:41.888Z,6.43
2019-02-19T21:43:43.791Z,6.25
2019-02-19T21:48:48.213Z,6.25
2019-02-19T21:53:50.023Z,6.32
2019-02-19T21:58:51.930Z,6.23
2019-02-19T22:03:54.023Z,6.11
2019-02-19T22:08:55.947Z,6.18
2019-02-19T22:13:57.833Z,6.02
2019-02-19T22:18:59.709Z,5.93
2019-02-19T22:24:01.632Z,5.88
2019-02-19T22:29:03.731Z,5.91
2019-02-19T22:34:05.735Z,5.92
2019-02-19T22:39:07.870Z,6.04
2019-02-19T22:44:10.961Z,6.34
2019-02-19T22:49:12.860Z,6.30
2019-02-19T22:54:37.310Z,6.23
2019-02-19T22:59:39.210Z,6.11
2019-02-19T23:04:41.213Z,6.10
2019-02-19T23:09:43.240Z,6.13
2019-02-19T23:14:45.230Z,6.24
2019-02-19T23:19:47.109Z,6.19
2019-02-19T23:24:50.446Z,6.00
2019-02-19T23:29:52.567Z,5.81
2019-02-19T23:35:29.023Z,5.63
2019-02-19T23:40:31.413Z,5.65
2019-02-19T23:45:33.361Z,5.44
2019-02-19T23:50:35.284Z,5.15
2019-02-19T23:55:37.411Z,4.94
